createdAt,value
2023-04-04T00:01:14.160Z,16.24
2023-04-04T00:03:44.199Z,16.26
2023-04-04T00:06:13.520Z,16.31
2023-04-04T00:08:43.379Z,16.26
2023-04-04T00:11:12.775Z,16.28
2023-04-04T00:13:43.145Z,16.16
2023-04-04T00:16:12.735Z,16.14
2023-04-04T00:18:42.078Z,16.24
2023-04-04T00:21:11.963Z,16.24
2023-04-04T00:23:41.256Z,16.22
2023-04-04T00:26:10.708Z,16.22
2023-04-04T00:28:42.096Z,16.18
2023-04-04T00:31:12.002Z,16.12
2023-04-04T00:33:41.341Z,16.01
2023-04-04T00:36:10.714Z,16.06
2023-04-04T00:38:41.257Z,16.15
2023-04-04T00:41:10.856Z,16.05
2023-04-04T00:43:41.761Z,16.03
2023-04-04T00:46:16.668Z,16.10
2023-04-04T00:48:46.433Z,16.06
2023-04-04T00:51:15.884Z,16.13
2023-04-04T00:53:48.214Z,16.17
2023-04-04T00:56:20.435Z,16.13
2023-04-04T00:58:53.473Z,16.17
2023-04-04T01:01:23.315Z,16.11
2023-04-04T01:03:53.257Z,16.01
2023-04-04T01:06:23.000Z,16.01
2023-04-04T01:08:53.862Z,16.11
2023-04-04T01:11:23.339Z,16.15
2023-04-04T01:13:53.964Z,16.11
2023-04-04T01:16:25.455Z,16.17
2023-04-04T01:18:56.230Z,16.26
2023-04-04T01:21:27.108Z,16.31
2023-04-04T01:24:05.144Z,16.36
2023-04-04T01:26:52.842Z,16.38
2023-04-04T01:29:22.971Z,16.41
2023-04-04T01:32:02.030Z,16.51
2023-04-04T01:34:46.218Z,16.66
2023-04-04T01:37:56.959Z,16.74
2023-04-04T01:40:30.479Z,16.73
2023-04-04T01:42:59.922Z,16.82
2023-04-04T01:45:32.120Z,16.81
2023-04-04T01:48:04.535Z,16.94
2023-04-04T01:50:34.371Z,17.20
2023-04-04T01:53:04.197Z,17.21
2023-04-04T01:55:33.507Z,17.22
2023-04-04T01:58:03.758Z,17.21
2023-04-04T02:00:33.455Z,17.40
2023-04-04T02:03:03.787Z,17.62
2023-04-04T02:05:33.270Z,18.09
2023-04-04T02:08:02.843Z,18.23
2023-04-04T02:10:41.041Z,18.50
2023-04-04T02:13:10.677Z,19.19
2023-04-04T02:15:40.247Z,19.91
2023-04-04T02:18:10.585Z,20.21
2023-04-04T02:20:40.166Z,20.44
2023-04-04T02:23:09.656Z,20.34
2023-04-04T02:25:38.789Z,20.48
2023-04-04T02:28:08.411Z,21.09
2023-04-04T02:30:37.790Z,21.01
2023-04-04T02:33:07.172Z,20.98
2023-04-04T02:35:36.769Z,21.92
2023-04-04T02:38:06.114Z,22.88
2023-04-04T02:40:43.755Z,22.77
2023-04-04T02:43:13.163Z,22.47
2023-04-04T02:45:43.514Z,22.50
2023-04-04T02:48:32.587Z,21.95
2023-04-04T02:51:04.223Z,21.16
2023-04-04T02:53:35.512Z,20.96
2023-04-04T02:56:16.946Z,21.23
2023-04-04T02:58:46.880Z,21.54
2023-04-04T03:01:16.516Z,21.18
2023-04-04T03:03:47.901Z,21.24
2023-04-04T03:06:17.299Z,21.14
2023-04-04T03:08:50.411Z,21.22
2023-04-04T03:11:22.182Z,21.31
2023-04-04T03:13:56.471Z,21.27
2023-04-04T03:16:34.992Z,21.48
2023-04-04T03:19:05.144Z,21.71
2023-04-04T03:21:34.412Z,21.95
2023-04-04T03:24:04.081Z,21.96
2023-04-04T03:26:34.465Z,22.05
2023-04-04T03:29:06.083Z,22.01
2023-04-04T03:31:35.870Z,22.28
2023-04-04T03:34:05.847Z,22.21
2023-04-04T03:36:35.305Z,22.05
2023-04-04T03:39:04.417Z,22.17
2023-04-04T03:41:34.026Z,22.22
2023-04-04T03:44:06.701Z,22.17
2023-04-04T03:46:36.126Z,22.25
2023-04-04T03:49:05.774Z,22.46
2023-04-04T03:51:35.402Z,22.15
2023-04-04T03:54:06.414Z,22.39
2023-04-04T03:56:36.462Z,22.13
2023-04-04T03:59:08.435Z,22.22
2023-04-04T04:01:38.467Z,21.98
2023-04-04T04:04:08.250Z,22.46
2023-04-04T04:06:38.478Z,22.55
2023-04-04T04:09:08.019Z,22.76
2023-04-04T04:11:38.241Z,22.75
2023-04-04T04:14:07.707Z,22.89
2023-04-04T04:16:42.659Z,22.92
2023-04-04T04:19:16.066Z,23.21
2023-04-04T04:21:45.881Z,23.24
2023-04-04T04:24:15.100Z,23.20
2023-04-04T04:26:44.604Z,23.24
2023-04-04T04:29:17.765Z,23.39
2023-04-04T04:31:48.118Z,23.55
2023-04-04T04:34:17.770Z,23.80
2023-04-04T04:36:48.512Z,24.11
2023-04-04T04:39:28.424Z,24.10
2023-04-04T04:42:24.639Z,24.46
2023-04-04T04:44:58.578Z,24.78
2023-04-04T04:47:28.775Z,25.30
2023-04-04T04:49:58.421Z,24.60
2023-04-04T04:52:40.606Z,25.22
2023-04-04T04:55:10.911Z,25.75
2023-04-04T04:57:47.843Z,25.83
2023-04-04T05:00:24.969Z,25.79
2023-04-04T05:02:58.090Z,25.99
2023-04-04T05:05:37.343Z,26.59
2023-04-04T05:08:10.829Z,26.73
2023-04-04T05:10:47.291Z,26.61
2023-04-04T05:13:16.680Z,26.12
2023-04-04T05:15:49.101Z,27.16
2023-04-04T05:18:19.298Z,27.22
2023-04-04T05:20:55.336Z,27.79
2023-04-04T05:23:28.327Z,27.32
2023-04-04T05:25:59.073Z,27.76
2023-04-04T05:28:34.923Z,28.13
2023-04-04T05:31:06.614Z,27.70
2023-04-04T05:33:38.067Z,27.41
2023-04-04T05:36:15.839Z,27.66
2023-04-04T05:38:53.902Z,28.21
2023-04-04T05:41:26.542Z,28.32
2023-04-04T05:44:02.651Z,28.62
2023-04-04T05:46:32.517Z,28.91
2023-04-04T05:49:01.933Z,28.59
2023-04-04T05:51:32.058Z,28.37
2023-04-04T05:54:10.899Z,28.30
2023-04-04T05:56:41.654Z,28.57
2023-04-04T05:59:25.655Z,28.75
2023-04-04T06:02:03.283Z,28.61
2023-04-04T06:04:34.595Z,28.80
2023-04-04T06:07:06.523Z,29.15
2023-04-04T06:09:37.307Z,28.97
2023-04-04T06:12:07.214Z,28.74
2023-04-04T06:14:39.990Z,28.66
2023-04-04T06:17:10.903Z,28.62
2023-04-04T06:19:40.170Z,28.70
2023-04-04T06:22:09.564Z,28.74
2023-04-04T06:24:42.208Z,28.60
2023-04-04T06:27:14.482Z,28.57
2023-04-04T06:29:44.340Z,28.54
2023-04-04T06:32:17.668Z,28.74
2023-04-04T06:34:47.381Z,28.67
2023-04-04T06:37:19.468Z,28.63
2023-04-04T06:39:59.522Z,28.25
2023-04-04T06:42:30.248Z,28.40
2023-04-04T06:45:04.949Z,28.50
2023-04-04T06:47:34.352Z,28.17
2023-04-04T06:50:04.168Z,28.22
2023-04-04T06:52:33.820Z,28.15
2023-04-04T06:55:05.474Z,28.11
2023-04-04T06:57:34.969Z,28.24
2023-04-04T07:00:04.655Z,28.17
2023-04-04T07:02:34.400Z,28.27
2023-04-04T07:05:05.058Z,28.32
2023-04-04T07:07:34.593Z,28.30
2023-04-04T07:10:04.409Z,28.16
2023-04-04T07:12:34.565Z,28.40
2023-04-04T07:15:04.974Z,28.13
2023-04-04T07:17:34.367Z,28.24
2023-04-04T07:20:04.885Z,28.22
2023-04-04T07:22:34.560Z,28.23
2023-04-04T07:25:03.758Z,28.32
2023-04-04T07:27:33.157Z,28.47
2023-04-04T07:30:03.387Z,28.32
2023-04-04T07:32:33.022Z,28.42
2023-04-04T07:35:02.481Z,28.55
2023-04-04T07:37:31.994Z,28.32
2023-04-04T07:40:01.495Z,28.38
2023-04-04T07:42:32.380Z,28.48
2023-04-04T07:45:01.651Z,28.55
2023-04-04T07:47:31.114Z,28.52
2023-04-04T07:50:01.036Z,28.44
2023-04-04T07:52:30.413Z,28.44
2023-04-04T07:55:01.606Z,28.42
2023-04-04T07:57:31.134Z,28.42
2023-04-04T08:00:00.950Z,28.32
2023-04-04T08:02:30.390Z,28.16
2023-04-04T08:04:59.820Z,28.07
2023-04-04T08:07:30.411Z,28.21
2023-04-04T08:10:00.483Z,28.22
2023-04-04T08:12:29.660Z,28.25
2023-04-04T08:14:59.058Z,28.25
2023-04-04T08:17:28.711Z,28.23
2023-04-04T08:19:58.372Z,28.22
2023-04-04T08:22:28.302Z,28.08
2023-04-04T08:24:57.903Z,28.11
2023-04-04T08:27:26.998Z,28.29
2023-04-04T08:29:56.761Z,28.32
2023-04-04T08:32:26.300Z,28.28
2023-04-04T08:34:55.691Z,28.16
2023-04-04T08:37:24.959Z,28.04
2023-04-04T08:39:54.162Z,28.11
2023-04-04T08:42:24.586Z,28.18
2023-04-04T08:44:56.232Z,27.83
2023-04-04T08:47:27.031Z,27.79
2023-04-04T08:49:58.293Z,27.85
2023-04-04T08:52:30.954Z,27.94
2023-04-04T08:55:00.510Z,28.01
2023-04-04T08:57:30.730Z,27.95
2023-04-04T09:00:00.462Z,27.82
2023-04-04T09:03:00.961Z,27.89
2023-04-04T09:05:31.255Z,27.74
2023-04-04T09:08:01.217Z,27.76
2023-04-04T09:10:30.997Z,27.69
2023-04-04T09:13:12.530Z,27.67
2023-04-04T09:15:58.527Z,27.50
2023-04-04T09:18:28.603Z,27.49
2023-04-04T09:20:58.195Z,27.43
2023-04-04T09:23:27.256Z,27.49
2023-04-04T09:28:30.647Z,27.68
2023-04-04T09:31:06.857Z,27.70
2023-04-04T09:33:40.518Z,27.56
2023-04-04T09:36:13.848Z,27.44
2023-04-04T09:38:49.844Z,27.38
2023-04-04T09:41:21.887Z,27.30
2023-04-04T09:43:52.604Z,27.27
2023-04-04T09:46:22.337Z,27.26
2023-04-04T09:48:52.745Z,27.30
2023-04-04T09:51:22.109Z,27.34
2023-04-04T09:53:52.834Z,27.36
2023-04-04T09:56:23.514Z,27.38
2023-04-04T09:59:02.997Z,27.35
2023-04-04T10:01:35.467Z,27.25
2023-04-04T10:04:07.373Z,27.29
2023-04-04T10:06:38.558Z,27.25
2023-04-04T10:09:10.073Z,27.25
2023-04-04T10:11:39.913Z,27.24
2023-04-04T10:14:11.406Z,27.17
2023-04-04T10:16:46.919Z,27.08
2023-04-04T10:19:20.335Z,27.09
2023-04-04T10:21:50.284Z,27.08
2023-04-04T10:24:20.371Z,26.97
2023-04-04T10:26:50.061Z,27.00
2023-04-04T10:29:19.623Z,27.08
2023-04-04T10:31:55.911Z,27.08
2023-04-04T10:34:48.915Z,27.03
2023-04-04T10:37:28.247Z,27.07
2023-04-04T10:40:20.523Z,27.09
2023-04-04T10:42:52.866Z,27.04
2023-04-04T10:45:22.933Z,27.01
2023-04-04T10:47:53.444Z,26.90
2023-04-04T10:50:23.008Z,26.85
2023-04-04T10:52:54.379Z,26.87
2023-04-04T10:55:25.320Z,26.86
2023-04-04T10:57:56.695Z,26.77
2023-04-04T11:00:26.511Z,26.73
2023-04-04T11:03:00.666Z,26.72
2023-04-04T11:05:48.286Z,26.73
2023-04-04T11:08:21.908Z,26.64
2023-04-04T11:10:53.300Z,26.60
2023-04-04T11:13:41.139Z,26.50
2023-04-04T11:16:17.231Z,26.50
2023-04-04T11:18:50.530Z,26.48
2023-04-04T11:21:24.832Z,26.48
2023-04-04T11:23:54.463Z,26.41
2023-04-04T11:26:29.839Z,26.31
2023-04-04T11:29:03.446Z,26.30
2023-04-04T11:31:41.276Z,26.22
2023-04-04T11:34:13.727Z,26.20
2023-04-04T11:36:44.210Z,26.22
2023-04-04T11:39:32.261Z,26.21
2023-04-04T11:42:14.865Z,26.19
2023-04-04T11:45:04.647Z,26.17
2023-04-04T11:47:34.777Z,26.11
2023-04-04T11:50:09.942Z,26.08
2023-04-04T11:52:41.817Z,26.04
2023-04-04T11:55:22.921Z,26.01
2023-04-04T11:57:56.601Z,25.96
2023-04-04T12:00:40.517Z,25.92
2023-04-04T12:03:14.389Z,25.91
2023-04-04T12:05:45.570Z,25.88
2023-04-04T12:08:16.883Z,25.83
2023-04-04T12:10:47.001Z,25.78
2023-04-04T12:13:16.527Z,25.76
2023-04-04T12:15:46.014Z,25.74
2023-04-04T12:18:23.583Z,25.69
2023-04-04T12:20:53.776Z,25.58
2023-04-04T12:23:24.850Z,25.50
2023-04-04T12:25:56.891Z,25.44
2023-04-04T12:28:28.413Z,25.36
2023-04-04T12:30:58.429Z,25.30
2023-04-04T12:33:29.269Z,25.23
2023-04-04T12:35:58.561Z,25.15
2023-04-04T12:38:29.333Z,25.07
2023-04-04T12:40:59.308Z,25.01
2023-04-04T12:43:35.081Z,25.01
2023-04-04T12:46:10.075Z,24.98
2023-04-04T12:48:40.513Z,24.97
2023-04-04T12:51:12.356Z,24.91
2023-04-04T12:54:02.578Z,24.82
2023-04-04T12:56:33.316Z,24.75
2023-04-04T12:59:06.869Z,24.70
2023-04-04T13:01:38.755Z,24.60
2023-04-04T13:04:10.905Z,24.52
2023-04-04T13:06:40.581Z,24.52
2023-04-04T13:09:21.962Z,24.44
2023-04-04T13:12:09.624Z,24.33
2023-04-04T13:15:02.086Z,24.24
2023-04-04T13:17:49.485Z,24.24
2023-04-04T13:20:22.508Z,24.13
2023-04-04T13:22:53.051Z,24.10
2023-04-04T13:25:23.130Z,24.04
2023-04-04T13:27:53.162Z,24.03
2023-04-04T13:30:23.442Z,23.93
2023-04-04T13:32:53.237Z,23.83
2023-04-04T13:35:22.493Z,23.80
2023-04-04T13:37:52.025Z,23.73
2023-04-04T13:40:21.967Z,23.64
2023-04-04T13:42:51.905Z,23.60
2023-04-04T13:45:21.871Z,23.59
2023-04-04T13:47:50.968Z,23.58
2023-04-04T13:50:22.205Z,23.51
2023-04-04T13:52:55.104Z,23.45
2023-04-04T13:55:25.024Z,23.36
2023-04-04T13:57:54.236Z,23.27
2023-04-04T14:00:27.806Z,23.26
2023-04-04T14:02:59.376Z,23.27
2023-04-04T14:05:29.253Z,23.24
2023-04-04T14:07:58.551Z,23.22
2023-04-04T14:10:27.575Z,23.10
2023-04-04T14:12:57.357Z,23.11
2023-04-04T14:15:26.685Z,23.03
2023-04-04T14:17:56.297Z,22.97
2023-04-04T14:20:25.679Z,22.92
2023-04-04T14:22:54.850Z,22.89
2023-04-04T14:25:24.313Z,22.80
2023-04-04T14:27:53.391Z,22.73
2023-04-04T14:30:23.057Z,22.73
2023-04-04T14:32:53.161Z,22.78
2023-04-04T14:35:23.135Z,22.77
2023-04-04T14:37:53.984Z,22.66
2023-04-04T14:40:24.570Z,22.57
2023-04-04T14:42:54.352Z,22.60
2023-04-04T14:45:25.296Z,22.60
2023-04-04T14:47:55.172Z,22.56
2023-04-04T14:50:25.731Z,22.53
2023-04-04T14:52:57.955Z,22.38
2023-04-04T14:55:28.458Z,22.35
2023-04-04T14:58:02.552Z,22.27
2023-04-04T15:00:33.131Z,22.23
2023-04-04T15:03:05.650Z,22.21
2023-04-04T15:05:38.210Z,22.21
2023-04-04T15:08:08.614Z,22.22
2023-04-04T15:10:38.659Z,22.25
2023-04-04T15:13:08.588Z,22.20
2023-04-04T15:15:38.214Z,22.19
2023-04-04T15:18:08.136Z,22.15
2023-04-04T15:20:40.715Z,22.12
2023-04-04T15:23:10.490Z,22.10
2023-04-04T15:25:40.586Z,22.16
2023-04-04T15:28:10.439Z,22.07
2023-04-04T15:30:40.039Z,21.95
2023-04-04T15:33:10.403Z,21.86
2023-04-04T15:35:40.025Z,21.80
2023-04-04T15:38:10.461Z,21.80
2023-04-04T15:40:40.829Z,21.72
2023-04-04T15:43:10.459Z,21.69
2023-04-04T15:45:40.545Z,21.64
2023-04-04T15:48:10.648Z,21.60
2023-04-04T15:50:40.356Z,21.57
2023-04-04T15:53:10.694Z,21.51
2023-04-04T15:55:40.568Z,21.45
2023-04-04T15:58:10.397Z,21.46
2023-04-04T16:00:47.282Z,21.42
2023-04-04T16:03:17.391Z,21.42
2023-04-04T16:05:47.871Z,21.40
2023-04-04T16:08:18.036Z,21.31
2023-04-04T16:10:48.086Z,21.30
2023-04-04T16:13:18.003Z,21.30
2023-04-04T16:15:47.874Z,21.23
2023-04-04T16:18:17.506Z,21.20
2023-04-04T16:20:47.377Z,21.18
2023-04-04T16:23:17.153Z,21.19
2023-04-04T16:25:47.039Z,21.12
2023-04-04T16:28:17.401Z,21.08
2023-04-04T16:30:47.385Z,21.03
2023-04-04T16:33:17.773Z,20.99
2023-04-04T16:35:47.920Z,20.97
2023-04-04T16:38:21.381Z,20.95
2023-04-04T16:40:51.371Z,20.93
2023-04-04T16:43:21.736Z,20.86
2023-04-04T16:45:51.978Z,20.78
2023-04-04T16:48:22.597Z,20.76
2023-04-04T16:50:52.938Z,20.70
2023-04-04T16:53:23.433Z,20.67
2023-04-04T16:55:53.242Z,20.62
2023-04-04T16:58:23.785Z,20.65
2023-04-04T17:00:53.814Z,20.61
2023-04-04T17:03:24.061Z,20.61
2023-04-04T17:06:02.212Z,20.57
2023-04-04T17:08:33.923Z,20.57
2023-04-04T17:11:04.225Z,20.51
2023-04-04T17:13:34.089Z,20.42
2023-04-04T17:16:04.196Z,20.35
2023-04-04T17:18:35.752Z,20.32
2023-04-04T17:21:06.637Z,20.33
2023-04-04T17:23:37.147Z,20.35
2023-04-04T17:26:07.925Z,20.34
2023-04-04T17:28:38.527Z,20.33
2023-04-04T17:31:09.726Z,20.28
2023-04-04T17:33:40.238Z,20.25
2023-04-04T17:36:11.122Z,20.23
2023-04-04T17:38:42.669Z,20.25
2023-04-04T17:41:13.401Z,20.19
2023-04-04T17:43:44.207Z,20.13
2023-04-04T17:46:15.139Z,20.05
2023-04-04T17:48:46.866Z,20.01
2023-04-04T17:51:18.025Z,19.94
2023-04-04T17:53:49.036Z,19.96
2023-04-04T17:56:19.798Z,19.94
2023-04-04T17:58:51.331Z,19.95
2023-04-04T18:01:24.107Z,19.95
2023-04-04T18:03:55.039Z,19.91
2023-04-04T18:06:25.554Z,19.92
2023-04-04T18:08:57.096Z,19.95
2023-04-04T18:11:29.709Z,19.94
2023-04-04T18:13:59.798Z,19.89
2023-04-04T18:16:30.476Z,19.88
2023-04-04T18:19:01.765Z,19.92
2023-04-04T18:21:33.003Z,19.96
2023-04-04T18:24:03.899Z,19.94
2023-04-04T18:26:35.915Z,19.88
2023-04-04T18:29:07.098Z,19.80
2023-04-04T18:31:38.283Z,19.78
2023-04-04T18:34:09.772Z,19.68
2023-04-04T18:36:41.537Z,19.66
2023-04-04T18:39:13.359Z,19.61
2023-04-04T18:41:44.112Z,19.52
2023-04-04T18:44:14.696Z,19.48
2023-04-04T18:46:44.838Z,19.55
2023-04-04T18:49:14.990Z,19.49
2023-04-04T18:51:45.209Z,19.46
2023-04-04T18:54:15.408Z,19.42
2023-04-04T18:56:45.851Z,19.37
2023-04-04T18:59:16.672Z,19.34
2023-04-04T19:01:46.984Z,19.41
2023-04-04T19:04:22.405Z,19.44
2023-04-04T19:06:55.562Z,19.40
2023-04-04T19:09:26.425Z,19.36
2023-04-04T19:12:00.025Z,19.22
2023-04-04T19:14:32.432Z,19.20
2023-04-04T19:17:03.910Z,19.16
2023-04-04T19:19:34.046Z,19.14
2023-04-04T19:22:04.424Z,19.13
2023-04-04T19:24:34.827Z,19.02
2023-04-04T19:27:04.918Z,18.98
2023-04-04T19:29:37.990Z,18.96
2023-04-04T19:32:21.105Z,18.97
2023-04-04T19:34:51.374Z,19.02
2023-04-04T19:37:21.663Z,19.09
2023-04-04T19:39:52.015Z,19.06
2023-04-04T19:42:29.314Z,18.99
2023-04-04T19:44:59.576Z,18.95
2023-04-04T19:47:29.673Z,18.98
2023-04-04T19:49:59.711Z,18.93
2023-04-04T19:52:29.443Z,18.90
2023-04-04T19:54:58.851Z,18.87
2023-04-04T19:57:28.731Z,18.84
2023-04-04T19:59:58.851Z,18.81
2023-04-04T20:02:34.722Z,18.84
2023-04-04T20:05:24.421Z,18.78
2023-04-04T20:07:54.735Z,18.71
2023-04-04T20:10:41.593Z,18.67
2023-04-04T20:13:12.339Z,18.66
2023-04-04T20:15:48.809Z,18.62
2023-04-04T20:18:30.073Z,18.55
2023-04-04T20:21:09.130Z,18.63
2023-04-04T20:23:55.082Z,18.61
2023-04-04T20:26:55.465Z,18.59
2023-04-04T20:29:31.034Z,18.58
2023-04-04T20:32:06.528Z,18.61
2023-04-04T20:34:43.895Z,18.64
2023-04-04T20:37:27.357Z,18.59
2023-04-04T20:40:13.447Z,18.57
2023-04-04T20:42:43.094Z,18.55
2023-04-04T20:45:29.098Z,18.56
2023-04-04T20:47:59.377Z,18.53
2023-04-04T20:50:28.932Z,18.48
2023-04-04T20:53:02.829Z,18.44
2023-04-04T20:55:34.354Z,18.44
2023-04-04T20:58:10.617Z,18.41
2023-04-04T21:00:41.530Z,18.46
2023-04-04T21:03:38.970Z,18.45
2023-04-04T21:06:14.515Z,18.38
2023-04-04T21:08:52.603Z,18.33
2023-04-04T21:11:31.233Z,18.29
2023-04-04T21:14:01.014Z,18.24
2023-04-04T21:16:31.046Z,18.22
2023-04-04T21:19:02.835Z,18.27
2023-04-04T21:21:32.572Z,18.25
2023-04-04T21:24:02.902Z,18.25
2023-04-04T21:26:43.113Z,18.21
2023-04-04T21:29:27.330Z,18.19
2023-04-04T21:31:57.612Z,18.21
2023-04-04T21:34:28.664Z,18.20
2023-04-04T21:37:02.570Z,18.18
2023-04-04T21:39:32.870Z,18.18
2023-04-04T21:42:05.981Z,18.15
2023-04-04T21:44:39.296Z,18.11
2023-04-04T21:47:08.801Z,18.08
2023-04-04T21:49:38.096Z,18.07
2023-04-04T21:52:07.466Z,18.01
2023-04-04T21:54:39.068Z,18.02
2023-04-04T21:57:08.338Z,18.02
2023-04-04T21:59:37.500Z,18.08
2023-04-04T22:02:06.822Z,18.07
2023-04-04T22:04:36.786Z,18.04
2023-04-04T22:07:06.028Z,17.93
2023-04-04T22:09:35.241Z,17.90
2023-04-04T22:12:04.650Z,17.89
2023-04-04T22:14:33.959Z,17.83
2023-04-04T22:17:04.298Z,17.78
2023-04-04T22:19:44.197Z,17.84
2023-04-04T22:22:14.808Z,17.85
2023-04-04T22:24:44.067Z,17.77
2023-04-04T22:27:14.763Z,17.73
2023-04-04T22:29:44.259Z,17.74
2023-04-04T22:32:13.450Z,17.71
2023-04-04T22:34:42.950Z,17.73
2023-04-04T22:37:12.471Z,17.74
2023-04-04T22:39:43.775Z,17.73
2023-04-04T22:42:16.070Z,17.80
2023-04-04T22:44:46.009Z,17.77
2023-04-04T22:47:15.706Z,17.81
2023-04-04T22:49:50.284Z,17.80
2023-04-04T22:52:20.034Z,17.84
2023-04-04T22:54:50.407Z,17.88
2023-04-04T22:57:19.853Z,17.88
2023-04-04T22:59:49.325Z,17.88
2023-04-04T23:02:18.433Z,17.85
2023-04-04T23:04:48.628Z,17.79
2023-04-04T23:07:17.767Z,17.83
2023-04-04T23:09:47.104Z,17.84
2023-04-04T23:12:16.704Z,17.85
2023-04-04T23:14:46.193Z,17.86
2023-04-04T23:17:15.226Z,17.81
2023-04-04T23:19:44.852Z,17.73
2023-04-04T23:22:14.123Z,17.76
2023-04-04T23:24:45.924Z,17.72
2023-04-04T23:27:15.712Z,17.68
2023-04-04T23:29:45.284Z,17.61
2023-04-04T23:32:15.000Z,17.58
2023-04-04T23:34:44.360Z,17.61
2023-04-04T23:37:13.696Z,17.60
2023-04-04T23:39:43.239Z,17.51
2023-04-04T23:42:12.888Z,17.48
2023-04-04T23:44:42.157Z,17.54
2023-04-04T23:47:11.962Z,17.51
2023-04-04T23:49:41.459Z,17.55
2023-04-04T23:52:10.686Z,17.44
2023-04-04T23:54:40.185Z,17.40
2023-04-04T23:57:09.464Z,17.33
2023-04-04T23:59:40.808Z,17.33
